Time;durP1;ratioP1;P1;durP2;ratioP2;P2;SDS_P1;SDS_P2;PMS_P1;PMS_P2;Temp;Humidity;BMP_temperature;BMP_pressure;BME280_temperature;BME280_humidity;BME280_pressure;Samples;Min_cycle;Max_cycle;Signal;HPM_P1;HPM_P2
2023/08/01 00:01:34;;;;;;;13.63;4.30;;;;;;;;;;5133506;27;20471;-66
2023/08/01 00:04:01;;;;;;;8.05;2.97;;;;;;;;;;5113015;27;20048;-65
2023/08/01 00:06:28;;;;;;;7.78;2.70;;;;;;;;;;5112392;28;20055;-65
2023/08/01 00:08:55;;;;;;;7.20;2.88;;;;;;;;;;5113295;28;20055;-64
2023/08/01 00:11:21;;;;;;;2.38;1.92;;;;;;;;;;5113166;28;20054;-65
2023/08/01 00:13:48;;;;;;;3.13;1.67;;;;;;;;;;5112802;28;20055;-64
2023/08/01 00:16:15;;;;;;;2.65;1.80;;;;;;;;;;5113014;28;20464;-65
2023/08/01 00:18:47;;;;;;;2.20;1.40;;;;;;;;;;5114161;27;20052;-65
2023/08/01 00:21:14;;;;;;;5.72;2.30;;;;;;;;;;5113055;28;20416;-65
2023/08/01 00:23:40;;;;;;;3.20;1.60;;;;;;;;;;5112878;28;20484;-65
2023/08/01 00:26:07;;;;;;;4.18;1.75;;;;;;;;;;5112309;28;20059;-65
2023/08/01 00:28:34;;;;;;;2.60;1.33;;;;;;;;;;5112817;28;20483;-66
2023/08/01 00:31:08;;;;;;;4.75;1.38;;;;;;;;;;5112372;28;20388;-65
2023/08/01 00:33:35;;;;;;;4.28;1.25;;;;;;;;;;5117287;28;20399;-64
2023/08/01 00:36:08;;;;;;;3.30;0.95;;;;;;;;;;5133272;28;20368;-64
2023/08/01 00:38:35;;;;;;;11.15;1.42;;;;;;;;;;5132866;28;20047;-64
2023/08/01 00:41:02;;;;;;;2.00;1.00;;;;;;;;;;5133224;28;20058;-64
2023/08/01 00:43:32;;;;;;;2.72;1.05;;;;;;;;;;5132794;28;20055;-64
2023/08/01 00:46:00;;;;;;;1.40;0.80;;;;;;;;;;5120523;28;20062;-64
2023/08/01 00:48:30;;;;;;;1.90;0.90;;;;;;;;;;5115240;28;20415;-64
2023/08/01 00:50:57;;;;;;;2.20;1.15;;;;;;;;;;5091818;28;20471;-64
2023/08/01 00:53:25;;;;;;;1.85;1.00;;;;;;;;;;5092526;28;20059;-64
2023/08/01 00:55:53;;;;;;;2.22;1.23;;;;;;;;;;5092219;28;20059;-64
2023/08/01 00:58:19;;;;;;;2.85;1.30;;;;;;;;;;5091972;28;20404;-65
2023/08/01 01:00:46;;;;;;;1.50;1.00;;;;;;;;;;5091965;28;20500;-65
2023/08/01 01:03:13;;;;;;;1.77;1.27;;;;;;;;;;5098197;28;20051;-64
2023/08/01 01:05:43;;;;;;;2.00;1.13;;;;;;;;;;5111273;28;20484;-64
2023/08/01 01:08:10;;;;;;;2.70;1.42;;;;;;;;;;5112528;28;20044;-64
2023/08/01 01:10:39;;;;;;;2.97;1.27;;;;;;;;;;5112836;28;20066;-64
2023/08/01 01:13:05;;;;;;;5.28;1.45;;;;;;;;;;5112520;28;20480;-64
2023/08/01 01:15:32;;;;;;;2.13;1.45;;;;;;;;;;5112387;28;20507;-64
2023/08/01 01:18:00;;;;;;;2.30;1.60;;;;;;;;;;5111485;28;20052;-64
2023/08/01 01:20:32;;;;;;;2.50;1.70;;;;;;;;;;5114890;28;20059;-64
2023/08/01 01:22:59;;;;;;;1.92;1.20;;;;;;;;;;5112401;28;20055;-64
2023/08/01 01:25:26;;;;;;;11.95;0.80;;;;;;;;;;5112216;28;20484;-64
2023/08/01 01:27:54;;;;;;;3.28;0.70;;;;;;;;;;5112601;28;20052;-64
2023/08/01 01:30:21;;;;;;;1.20;0.70;;;;;;;;;;5112554;28;20236;-64
2023/08/01 01:32:48;;;;;;;1.95;1.00;;;;;;;;;;5111788;28;20055;-64
2023/08/01 01:35:15;;;;;;;3.50;0.98;;;;;;;;;;5114703;28;20408;-64
2023/08/01 01:37:43;;;;;;;2.03;0.90;;;;;;;;;;5112264;28;20070;-64
2023/08/01 01:40:11;;;;;;;1.20;0.77;;;;;;;;;;5114708;28;20052;-64
2023/08/01 01:42:38;;;;;;;2.30;1.33;;;;;;;;;;5116237;28;20404;-64
2023/08/01 01:45:05;;;;;;;2.47;1.10;;;;;;;;;;5115646;28;20048;-64
2023/08/01 01:47:32;;;;;;;3.70;1.80;;;;;;;;;;5116072;28;20369;-64
2023/08/01 01:49:58;;;;;;;2.28;1.50;;;;;;;;;;5115310;27;20141;-64
2023/08/01 01:52:25;;;;;;;1.80;1.33;;;;;;;;;;5115968;28;20056;-64
2023/08/01 01:54:53;;;;;;;2.53;1.80;;;;;;;;;;5115431;28;20059;-64
2023/08/01 01:57:20;;;;;;;2.78;1.80;;;;;;;;;;5115246;28;20059;-64
2023/08/01 01:59:47;;;;;;;3.60;2.05;;;;;;;;;;5115608;28;20066;-64
2023/08/01 02:02:14;;;;;;;2.97;2.05;;;;;;;;;;5115686;28;20396;-64
2023/08/01 02:04:41;;;;;;;3.03;1.92;;;;;;;;;;5115894;27;20055;-64
2023/08/01 02:07:10;;;;;;;3.80;2.60;;;;;;;;;;5114095;28;20055;-64
2023/08/01 02:09:39;;;;;;;3.55;2.22;;;;;;;;;;5115575;28;20070;-64
2023/08/01 02:12:09;;;;;;;3.03;2.40;;;;;;;;;;5115603;28;20055;-64
2023/08/01 02:14:39;;;;;;;4.22;2.40;;;;;;;;;;5115080;28;20052;-64
2023/08/01 02:17:06;;;;;;;3.65;2.40;;;;;;;;;;5117047;27;20051;-64
2023/08/01 02:19:33;;;;;;;3.97;2.75;;;;;;;;;;5127148;27;20058;-64
2023/08/01 02:22:00;;;;;;;4.00;2.50;;;;;;;;;;5114809;28;20062;-63
2023/08/01 02:24:26;;;;;;;3.65;2.35;;;;;;;;;;5115485;28;20058;-64
2023/08/01 02:26:53;;;;;;;4.90;3.03;;;;;;;;;;5115154;28;20059;-64
2023/08/01 02:29:21;;;;;;;6.65;3.03;;;;;;;;;;5114917;28;20051;-64
2023/08/01 02:31:48;;;;;;;3.55;2.55;;;;;;;;;;5114521;28;20063;-63
2023/08/01 02:34:15;;;;;;;4.13;3.25;;;;;;;;;;5114055;28;20043;-64
2023/08/01 02:36:42;;;;;;;4.13;3.13;;;;;;;;;;5114333;27;20053;-64
2023/08/01 02:39:09;;;;;;;6.95;4.47;;;;;;;;;;5114644;28;20161;-64
2023/08/01 02:41:36;;;;;;;4.60;3.47;;;;;;;;;;5114513;28;20078;-64
2023/08/01 02:44:02;;;;;;;3.28;2.72;;;;;;;;;;5114324;28;20074;-64
2023/08/01 02:46:31;;;;;;;6.70;4.03;;;;;;;;;;5114491;28;20056;-64
2023/08/01 02:48:57;;;;;;;5.07;3.40;;;;;;;;;;5114148;28;20067;-64
2023/08/01 02:51:24;;;;;;;6.03;4.70;;;;;;;;;;5117601;27;20058;-64
2023/08/01 02:53:51;;;;;;;6.55;5.03;;;;;;;;;;5114165;28;20424;-64
2023/08/01 02:56:18;;;;;;;7.90;5.10;;;;;;;;;;5114209;28;20506;-64
2023/08/01 02:58:45;;;;;;;6.55;5.03;;;;;;;;;;5114186;28;20507;-64
2023/08/01 03:01:11;;;;;;;7.55;5.13;;;;;;;;;;5113957;28;20150;-64
2023/08/01 03:03:41;;;;;;;6.43;5.15;;;;;;;;;;5113833;28;20051;-64
2023/08/01 03:06:08;;;;;;;7.47;5.45;;;;;;;;;;5109872;27;20058;-64
2023/08/01 03:08:35;;;;;;;10.57;6.47;;;;;;;;;;5113607;28;20066;-64
2023/08/01 03:11:02;;;;;;;9.73;5.90;;;;;;;;;;5114179;28;20470;-64
2023/08/01 03:13:28;;;;;;;10.63;6.80;;;;;;;;;;5113831;28;20416;-64
2023/08/01 03:15:55;;;;;;;10.45;6.15;;;;;;;;;;5113649;28;20055;-64
2023/08/01 03:18:22;;;;;;;10.05;6.65;;;;;;;;;;5126604;27;20498;-63
2023/08/01 03:20:51;;;;;;;8.43;5.57;;;;;;;;;;5120971;27;20055;-64
2023/08/01 03:23:18;;;;;;;15.93;8.60;;;;;;;;;;5113891;28;20056;-64
2023/08/01 03:25:45;;;;;;;11.57;7.70;;;;;;;;;;5113636;28;20048;-64
2023/08/01 03:28:12;;;;;;;11.43;7.75;;;;;;;;;;5114021;28;20499;-64
2023/08/01 03:30:38;;;;;;;10.70;7.72;;;;;;;;;;5113586;28;20380;-64
2023/08/01 03:33:05;;;;;;;13.05;8.70;;;;;;;;;;5113178;28;20393;-64
2023/08/01 03:35:32;;;;;;;14.18;9.40;;;;;;;;;;5112763;27;20047;-64
2023/08/01 03:38:00;;;;;;;15.48;10.60;;;;;;;;;;5113728;28;20051;-64
2023/08/01 03:40:27;;;;;;;15.32;10.00;;;;;;;;;;5113886;28;20495;-64
2023/08/01 03:42:56;;;;;;;16.23;10.13;;;;;;;;;;5114021;28;20055;-64
2023/08/01 03:45:23;;;;;;;17.63;11.80;;;;;;;;;;5113431;28;20059;-64
2023/08/01 03:47:49;;;;;;;19.45;12.57;;;;;;;;;;5113849;28;20058;-64
2023/08/01 03:50:16;;;;;;;21.23;13.43;;;;;;;;;;5113379;27;20483;-64
2023/08/01 03:52:43;;;;;;;24.85;16.02;;;;;;;;;;5113425;28;20063;-64
2023/08/01 03:55:11;;;;;;;23.10;15.18;;;;;;;;;;5113115;28;20052;-64
2023/08/01 03:57:38;;;;;;;27.25;17.35;;;;;;;;;;5113383;28;20535;-64
2023/08/01 04:00:06;;;;;;;31.42;18.25;;;;;;;;;;5112910;28;20066;-65
2023/08/01 04:02:32;;;;;;;35.03;19.45;;;;;;;;;;5112806;28;20047;-64
2023/08/01 04:04:59;;;;;;;37.47;21.65;;;;;;;;;;5117282;27;20054;-64
2023/08/01 04:07:26;;;;;;;39.78;23.38;;;;;;;;;;5112611;27;20051;-64
2023/08/01 04:09:56;;;;;;;35.33;20.63;;;;;;;;;;5092744;28;20051;-64
2023/08/01 04:12:24;;;;;;;42.75;23.38;;;;;;;;;;5092805;28;20048;-64
2023/08/01 04:14:51;;;;;;;41.97;24.85;;;;;;;;;;5092710;28;20378;-64
2023/08/01 04:17:18;;;;;;;43.00;24.23;;;;;;;;;;5100242;27;20047;-65
2023/08/01 04:19:44;;;;;;;40.28;22.88;;;;;;;;;;5127905;27;20055;-64
2023/08/01 04:22:11;;;;;;;34.42;21.63;;;;;;;;;;5112965;28;20047;-65
2023/08/01 04:24:38;;;;;;;44.50;25.73;;;;;;;;;;5112568;28;20051;-64
2023/08/01 04:27:05;;;;;;;35.80;23.88;;;;;;;;;;5111441;28;20056;-64
2023/08/01 04:29:34;;;;;;;40.47;23.65;;;;;;;;;;5111883;27;20055;-65
2023/08/01 04:32:00;;;;;;;40.83;23.42;;;;;;;;;;5112181;28;20052;-64
2023/08/01 04:34:27;;;;;;;35.45;22.88;;;;;;;;;;5111872;28;20056;-65
2023/08/01 04:36:55;;;;;;;35.03;21.50;;;;;;;;;;5116217;28;20063;-65
2023/08/01 04:39:21;;;;;;;28.30;19.83;;;;;;;;;;5112497;28;20488;-65
2023/08/01 04:41:49;;;;;;;30.05;20.08;;;;;;;;;;5112556;28;20412;-65
2023/08/01 04:44:16;;;;;;;34.13;21.40;;;;;;;;;;5112848;28;20431;-65
2023/08/01 04:46:47;;;;;;;22.80;15.68;;;;;;;;;;5111991;28;20044;-65
2023/08/01 04:49:14;;;;;;;31.77;18.52;;;;;;;;;;5111742;28;20130;-65
2023/08/01 04:51:42;;;;;;;27.92;16.88;;;;;;;;;;5112900;28;20404;-65
2023/08/01 04:54:09;;;;;;;21.60;14.75;;;;;;;;;;5112379;28;20063;-64
2023/08/01 04:56:36;;;;;;;23.20;15.30;;;;;;;;;;5112749;28;20377;-65
2023/08/01 04:59:03;;;;;;;25.35;16.63;;;;;;;;;;5112176;28;20054;-65
2023/08/01 05:01:30;;;;;;;23.38;16.08;;;;;;;;;;5112620;28;20056;-65
2023/08/01 05:03:58;;;;;;;25.88;15.02;;;;;;;;;;5112320;28;20052;-65
2023/08/01 05:06:25;;;;;;;24.10;15.82;;;;;;;;;;5115035;27;20055;-65
2023/08/01 05:08:52;;;;;;;17.58;13.88;;;;;;;;;;5112248;28;20412;-65
2023/08/01 05:11:18;;;;;;;30.15;17.48;;;;;;;;;;5112271;28;20047;-65
2023/08/01 05:13:45;;;;;;;21.90;13.85;;;;;;;;;;5112810;28;20055;-66
2023/08/01 05:16:12;;;;;;;18.92;13.50;;;;;;;;;;5116565;28;20048;-66
2023/08/01 05:18:39;;;;;;;24.75;15.85;;;;;;;;;;5115968;28;20484;-66
2023/08/01 05:21:10;;;;;;;25.65;16.42;;;;;;;;;;5115906;27;20380;-65
2023/08/01 05:23:37;;;;;;;27.42;17.85;;;;;;;;;;5115836;28;20063;-66
2023/08/01 05:26:03;;;;;;;28.25;17.77;;;;;;;;;;5116290;28;20047;-65
2023/08/01 05:28:30;;;;;;;23.40;15.82;;;;;;;;;;5116019;28;20051;-65
2023/08/01 05:30:57;;;;;;;27.05;18.85;;;;;;;;;;5115789;28;20058;-65
2023/08/01 05:33:24;;;;;;;26.98;19.00;;;;;;;;;;5116277;28;20380;-65
2023/08/01 05:35:51;;;;;;;27.13;18.55;;;;;;;;;;5111300;27;20074;-64
2023/08/01 05:38:19;;;;;;;29.58;20.40;;;;;;;;;;5115036;27;20052;-65
2023/08/01 05:40:45;;;;;;;38.33;23.95;;;;;;;;;;5115981;28;20063;-65
2023/08/01 05:43:12;;;;;;;36.85;22.48;;;;;;;;;;5115992;28;20051;-65
2023/08/01 05:45:39;;;;;;;37.58;21.33;;;;;;;;;;5115674;28;20052;-65
2023/08/01 05:48:06;;;;;;;31.60;21.58;;;;;;;;;;5114597;27;20066;-65
2023/08/01 05:50:33;;;;;;;27.65;19.60;;;;;;;;;;5114033;27;20051;-65
2023/08/01 05:53:00;;;;;;;30.00;19.25;;;;;;;;;;5115940;27;20055;-65
2023/08/01 05:55:28;;;;;;;27.52;18.77;;;;;;;;;;5113612;27;20052;-65
2023/08/01 05:57:54;;;;;;;28.92;18.58;;;;;;;;;;5112814;28;20376;-62
2023/08/01 06:00:21;;;;;;;30.23;20.60;;;;;;;;;;5109993;27;20048;-62
2023/08/01 06:02:48;;;;;;;25.20;18.08;;;;;;;;;;5106918;28;20511;-63
2023/08/01 06:05:15;;;;;;;25.90;17.05;;;;;;;;;;5110736;27;20047;-63
2023/08/01 06:07:42;;;;;;;26.15;18.60;;;;;;;;;;5113885;27;20047;-65
2023/08/01 06:10:09;;;;;;;22.25;14.18;;;;;;;;;;5111820;28;20055;-65
2023/08/01 06:12:37;;;;;;;25.50;16.80;;;;;;;;;;5112937;28;20403;-65
2023/08/01 06:15:05;;;;;;;22.50;16.23;;;;;;;;;;5111660;28;20051;-64
2023/08/01 06:17:32;;;;;;;24.27;16.30;;;;;;;;;;5113231;28;20499;-65
2023/08/01 06:19:59;;;;;;;25.40;15.93;;;;;;;;;;5112207;28;20047;-65
2023/08/01 06:22:25;;;;;;;26.90;16.40;;;;;;;;;;5101927;27;20040;-65
2023/08/01 06:24:52;;;;;;;25.35;18.27;;;;;;;;;;5109585;28;20044;-65
2023/08/01 06:27:19;;;;;;;28.02;18.17;;;;;;;;;;5112602;28;20082;-65
2023/08/01 06:29:47;;;;;;;27.33;17.70;;;;;;;;;;5109190;28;20044;-64
2023/08/01 06:32:14;;;;;;;34.75;21.42;;;;;;;;;;5109366;27;20047;-65
2023/08/01 06:34:40;;;;;;;26.40;18.40;;;;;;;;;;5121729;27;20043;-65
2023/08/01 06:37:07;;;;;;;27.52;18.60;;;;;;;;;;5112185;28;20051;-64
2023/08/01 06:39:34;;;;;;;27.65;18.08;;;;;;;;;;5113405;28;20051;-65
2023/08/01 06:42:01;;;;;;;21.83;15.95;;;;;;;;;;5113909;27;20055;-60
2023/08/01 06:44:27;;;;;;;20.40;14.52;;;;;;;;;;5110639;28;20056;-61
2023/08/01 06:46:55;;;;;;;23.80;16.65;;;;;;;;;;5114377;28;20058;-59
2023/08/01 06:49:22;;;;;;;20.90;14.63;;;;;;;;;;5114560;28;20382;-59
2023/08/01 06:51:49;;;;;;;20.33;14.10;;;;;;;;;;5112666;28;20048;-60
2023/08/01 06:54:16;;;;;;;21.13;13.63;;;;;;;;;;5113846;28;20062;-61
2023/08/01 06:56:47;;;;;;;25.65;15.85;;;;;;;;;;5114328;28;20526;-60
2023/08/01 06:59:14;;;;;;;21.85;13.05;;;;;;;;;;5113985;28;20047;-63
2023/08/01 07:01:43;;;;;;;20.38;14.32;;;;;;;;;;5112491;28;20051;-62
2023/08/01 07:04:11;;;;;;;22.67;14.38;;;;;;;;;;5113952;28;20075;-63
2023/08/01 07:06:38;;;;;;;18.75;13.27;;;;;;;;;;5111634;28;20047;-62
2023/08/01 07:09:05;;;;;;;18.55;12.93;;;;;;;;;;5113040;28;20050;-62
2023/08/01 07:11:31;;;;;;;15.68;12.55;;;;;;;;;;5113836;28;20051;-62
2023/08/01 07:13:58;;;;;;;19.25;12.93;;;;;;;;;;5113984;28;20047;-62
2023/08/01 07:16:25;;;;;;;15.73;10.68;;;;;;;;;;5113612;28;20416;-62
2023/08/01 07:18:52;;;;;;;20.08;14.13;;;;;;;;;;5113855;28;20574;-64
2023/08/01 07:21:20;;;;;;;18.17;11.73;;;;;;;;;;5112394;28;20051;-62
2023/08/01 07:23:48;;;;;;;17.85;12.07;;;;;;;;;;5107637;28;20385;-62
2023/08/01 07:26:15;;;;;;;17.70;12.13;;;;;;;;;;5092972;28;20385;-62
2023/08/01 07:28:41;;;;;;;16.58;12.43;;;;;;;;;;5092882;28;20067;-62
2023/08/01 07:31:08;;;;;;;16.58;12.48;;;;;;;;;;5092713;28;20055;-61
2023/08/01 07:33:35;;;;;;;16.52;11.48;;;;;;;;;;5093247;28;20055;-62
2023/08/01 07:36:02;;;;;;;14.70;11.13;;;;;;;;;;5113491;28;20055;-61
2023/08/01 07:38:31;;;;;;;13.82;10.73;;;;;;;;;;5098477;28;20071;-61
2023/08/01 07:40:58;;;;;;;14.55;10.90;;;;;;;;;;5099423;28;20043;-61
2023/08/01 07:43:27;;;;;;;15.80;10.05;;;;;;;;;;5113462;28;20051;-61
2023/08/01 07:45:56;;;;;;;14.43;10.77;;;;;;;;;;5113408;28;20059;-61
2023/08/01 07:48:22;;;;;;;15.27;10.48;;;;;;;;;;5113530;28;20074;-61
2023/08/01 07:50:49;;;;;;;11.95;8.35;;;;;;;;;;5112287;28;20070;-61
2023/08/01 07:53:16;;;;;;;11.18;7.50;;;;;;;;;;5112292;27;20078;-61
2023/08/01 07:55:44;;;;;;;11.55;8.02;;;;;;;;;;5112938;28;20471;-61
2023/08/01 07:58:11;;;;;;;9.50;8.10;;;;;;;;;;5113413;28;20400;-61
2023/08/01 08:00:38;;;;;;;10.95;7.47;;;;;;;;;;5112053;28;20499;-61
2023/08/01 08:03:05;;;;;;;12.07;8.32;;;;;;;;;;5112783;28;20066;-64
2023/08/01 08:05:32;;;;;;;11.82;8.40;;;;;;;;;;5112870;28;20071;-65
2023/08/01 08:07:59;;;;;;;15.65;8.50;;;;;;;;;;5112640;27;20059;-65
2023/08/01 08:10:25;;;;;;;14.55;7.25;;;;;;;;;;5112341;28;20067;-65
2023/08/01 08:12:54;;;;;;;10.55;7.15;;;;;;;;;;5112940;28;20055;-65
2023/08/01 08:15:21;;;;;;;10.93;7.47;;;;;;;;;;5113059;28;20051;-65
2023/08/01 08:17:47;;;;;;;11.07;7.00;;;;;;;;;;5105286;28;20052;-65
2023/08/01 08:20:14;;;;;;;8.50;6.97;;;;;;;;;;5092729;28;20048;-64
2023/08/01 08:22:41;;;;;;;10.63;7.00;;;;;;;;;;5102632;27;20044;-65
2023/08/01 08:25:08;;;;;;;9.45;6.85;;;;;;;;;;5112329;28;20416;-65
2023/08/01 08:27:35;;;;;;;10.13;6.32;;;;;;;;;;5121563;28;20052;-61
2023/08/01 08:30:03;;;;;;;10.27;6.05;;;;;;;;;;5112858;28;20054;-65
2023/08/01 08:32:30;;;;;;;11.02;5.72;;;;;;;;;;5112348;28;20055;-65
2023/08/01 08:34:57;;;;;;;8.63;5.72;;;;;;;;;;5112443;28;20511;-65
2023/08/01 08:37:24;;;;;;;9.23;5.57;;;;;;;;;;5105658;28;20048;-65
2023/08/01 08:39:50;;;;;;;10.05;6.13;;;;;;;;;;5071815;28;20044;-66
2023/08/01 08:42:19;;;;;;;8.60;5.13;;;;;;;;;;5072318;28;20075;-65
2023/08/01 08:44:48;;;;;;;9.23;5.47;;;;;;;;;;5072224;28;20059;-65
2023/08/01 08:47:17;;;;;;;8.27;5.13;;;;;;;;;;5071626;28;20052;-66
2023/08/01 08:49:44;;;;;;;7.30;4.57;;;;;;;;;;5075812;28;20048;-66
2023/08/01 08:52:11;;;;;;;6.90;5.10;;;;;;;;;;5096133;28;20052;-66
2023/08/01 08:54:38;;;;;;;8.50;5.50;;;;;;;;;;5116860;28;20063;-64
2023/08/01 08:57:06;;;;;;;8.23;4.80;;;;;;;;;;5116764;28;20056;-64
2023/08/01 08:59:34;;;;;;;7.75;5.00;;;;;;;;;;5116767;28;20059;-64
2023/08/01 09:02:01;;;;;;;7.53;4.43;;;;;;;;;;5116691;28;20052;-63
2023/08/01 09:04:29;;;;;;;9.55;5.32;;;;;;;;;;5116332;28;20051;-63
2023/08/01 09:06:58;;;;;;;7.75;5.45;;;;;;;;;;5111606;28;20051;-63
2023/08/01 09:09:26;;;;;;;7.05;4.13;;;;;;;;;;5116818;28;20052;-64
2023/08/01 09:11:55;;;;;;;7.93;5.03;;;;;;;;;;5116816;28;20058;-63
2023/08/01 09:14:22;;;;;;;6.05;4.53;;;;;;;;;;5116590;28;20377;-63
2023/08/01 09:16:49;;;;;;;8.02;5.28;;;;;;;;;;5116322;28;20047;-64
2023/08/01 09:19:17;;;;;;;6.43;4.35;;;;;;;;;;5075430;28;20523;-60
2023/08/01 09:21:46;;;;;;;5.97;4.32;;;;;;;;;;5094863;28;20047;-60
2023/08/01 09:24:13;;;;;;;7.25;4.47;;;;;;;;;;5116008;28;20403;-60
2023/08/01 09:26:40;;;;;;;6.05;4.63;;;;;;;;;;5115418;28;20074;-61
2023/08/01 09:29:07;;;;;;;7.20;5.03;;;;;;;;;;5116397;28;20051;-61
2023/08/01 09:31:35;;;;;;;7.40;5.43;;;;;;;;;;5121225;27;20051;-60
2023/08/01 09:34:03;;;;;;;8.30;5.22;;;;;;;;;;5136886;27;20055;-60
2023/08/01 09:36:31;;;;;;;8.77;5.20;;;;;;;;;;5122520;27;20066;-60
2023/08/01 09:39:03;;;;;;;4.82;4.20;;;;;;;;;;5115814;28;20082;-60
2023/08/01 09:41:30;;;;;;;8.35;5.15;;;;;;;;;;5115818;28;20054;-60
2023/08/01 09:43:57;;;;;;;5.43;4.18;;;;;;;;;;5115815;28;20052;-61
2023/08/01 09:46:24;;;;;;;7.22;4.15;;;;;;;;;;5115750;28;20489;-60
2023/08/01 09:48:51;;;;;;;4.88;3.70;;;;;;;;;;5115474;28;20055;-60
2023/08/01 09:51:19;;;;;;;6.60;3.95;;;;;;;;;;5114807;27;20054;-60
2023/08/01 09:53:49;;;;;;;5.43;3.83;;;;;;;;;;5115774;28;20047;-60
2023/08/01 09:56:18;;;;;;;5.43;3.33;;;;;;;;;;5115588;28;20059;-60
2023/08/01 09:58:46;;;;;;;5.45;3.63;;;;;;;;;;5115449;28;20480;-60
2023/08/01 10:01:13;;;;;;;7.18;3.83;;;;;;;;;;5114639;28;20440;-60
2023/08/01 10:03:45;;;;;;;7.38;3.60;;;;;;;;;;5114896;27;20413;-60
2023/08/01 10:06:12;;;;;;;6.25;3.60;;;;;;;;;;5115283;27;20051;-60
2023/08/01 10:08:39;;;;;;;4.53;3.28;;;;;;;;;;5115685;28;20061;-61
2023/08/01 10:11:06;;;;;;;4.90;3.47;;;;;;;;;;5115248;28;20052;-60
2023/08/01 10:13:34;;;;;;;6.88;3.38;;;;;;;;;;5115160;28;20062;-60
2023/08/01 10:16:02;;;;;;;3.87;2.93;;;;;;;;;;5115120;28;20052;-60
2023/08/01 10:18:29;;;;;;;5.07;3.30;;;;;;;;;;5115086;28;20474;-60
2023/08/01 10:20:56;;;;;;;5.10;3.25;;;;;;;;;;5113196;27;20047;-60
2023/08/01 10:23:23;;;;;;;6.00;3.15;;;;;;;;;;5115205;28;20480;-60
2023/08/01 10:25:50;;;;;;;6.63;3.10;;;;;;;;;;5115011;28;20145;-61
2023/08/01 10:28:17;;;;;;;4.80;3.17;;;;;;;;;;5115141;28;20503;-61
2023/08/01 10:30:45;;;;;;;4.97;2.83;;;;;;;;;;5112993;27;20476;-60
2023/08/01 10:33:13;;;;;;;4.35;2.55;;;;;;;;;;5114496;28;20056;-60
2023/08/01 10:35:40;;;;;;;4.10;2.97;;;;;;;;;;5110629;27;20063;-60
2023/08/01 10:38:08;;;;;;;14.30;3.75;;;;;;;;;;5111569;28;20059;-60
2023/08/01 10:40:38;;;;;;;13.38;4.68;;;;;;;;;;5114425;28;20051;-60
2023/08/01 10:43:05;;;;;;;7.10;3.35;;;;;;;;;;5115952;28;20507;-60
2023/08/01 10:45:32;;;;;;;8.48;4.22;;;;;;;;;;5114788;28;20408;-59
2023/08/01 10:48:10;;;;;;;9.52;5.18;;;;;;;;;;5114476;28;20059;-60
2023/08/01 10:50:37;;;;;;;8.38;5.43;;;;;;;;;;5114859;27;20087;-64
2023/08/01 10:53:04;;;;;;;9.45;6.05;;;;;;;;;;5114695;28;20059;-64
2023/08/01 10:55:39;;;;;;;6.72;4.82;;;;;;;;;;5114804;28;20058;-64
2023/08/01 10:58:06;;;;;;;9.40;5.35;;;;;;;;;;5114729;28;20051;-64
2023/08/01 11:00:33;;;;;;;6.07;4.53;;;;;;;;;;5114552;28;20056;-64
2023/08/01 11:02:59;;;;;;;6.97;4.18;;;;;;;;;;5114386;28;20048;-64
2023/08/01 11:05:29;;;;;;;7.47;4.60;;;;;;;;;;5115746;27;20058;-64
2023/08/01 11:07:56;;;;;;;6.97;4.88;;;;;;;;;;5114477;28;20055;-64
2023/08/01 11:10:24;;;;;;;8.13;4.30;;;;;;;;;;5114469;28;20051;-64
2023/08/01 11:12:51;;;;;;;9.05;4.22;;;;;;;;;;5113342;28;20048;-64
2023/08/01 11:15:18;;;;;;;5.75;4.28;;;;;;;;;;5113688;28;20051;-64
2023/08/01 11:17:48;;;;;;;5.22;3.70;;;;;;;;;;5114148;28;20055;-64
2023/08/01 11:20:15;;;;;;;5.10;3.80;;;;;;;;;;5113947;27;20423;-65
2023/08/01 11:22:51;;;;;;;5.38;3.45;;;;;;;;;;5114368;28;20048;-65
2023/08/01 11:25:18;;;;;;;6.18;3.13;;;;;;;;;;5113806;28;20051;-64
2023/08/01 11:27:45;;;;;;;5.93;3.42;;;;;;;;;;5114177;28;20341;-64
2023/08/01 11:30:12;;;;;;;6.22;3.60;;;;;;;;;;5113950;28;20066;-64
2023/08/01 11:32:39;;;;;;;5.28;3.50;;;;;;;;;;5113337;28;20052;-63
2023/08/01 11:35:07;;;;;;;5.93;3.78;;;;;;;;;;5112068;28;20518;-64
2023/08/01 11:37:34;;;;;;;8.82;4.90;;;;;;;;;;5114107;28;20059;-60
2023/08/01 11:40:02;;;;;;;7.72;5.28;;;;;;;;;;5113366;28;20058;-60
2023/08/01 11:42:31;;;;;;;8.45;5.20;;;;;;;;;;5113457;28;20121;-61
2023/08/01 11:45:08;;;;;;;9.15;5.53;;;;;;;;;;5113391;28;20047;-61
2023/08/01 11:47:35;;;;;;;6.13;3.95;;;;;;;;;;5113746;28;20078;-59
2023/08/01 11:50:01;;;;;;;6.28;3.17;;;;;;;;;;5113911;27;20137;-59
2023/08/01 11:52:29;;;;;;;5.45;4.22;;;;;;;;;;5114184;28;20047;-64
2023/08/01 11:54:56;;;;;;;5.15;3.10;;;;;;;;;;5113500;28;20055;-64
2023/08/01 11:57:24;;;;;;;5.35;3.40;;;;;;;;;;5113072;28;20048;-64
2023/08/01 11:59:52;;;;;;;6.50;3.42;;;;;;;;;;5113527;28;20400;-59
2023/08/01 12:02:25;;;;;;;6.32;3.75;;;;;;;;;;5113305;28;20048;-59
2023/08/01 12:04:52;;;;;;;4.45;3.70;;;;;;;;;;5106482;27;20044;-59
2023/08/01 12:07:19;;;;;;;5.82;4.05;;;;;;;;;;5092453;28;20048;-58
2023/08/01 12:09:57;;;;;;;5.78;3.60;;;;;;;;;;5092540;28;20059;-59
2023/08/01 12:12:27;;;;;;;4.57;3.38;;;;;;;;;;5092422;28;20067;-59
2023/08/01 12:14:54;;;;;;;5.32;3.40;;;;;;;;;;5092595;28;20062;-58
2023/08/01 12:17:21;;;;;;;5.95;3.83;;;;;;;;;;5096710;28;20123;-59
2023/08/01 12:19:47;;;;;;;7.35;5.72;;;;;;;;;;5111654;27;20157;-58
2023/08/01 12:22:15;;;;;;;13.43;8.13;;;;;;;;;;5112727;28;20043;-63
2023/08/01 12:24:45;;;;;;;15.57;8.85;;;;;;;;;;5112773;28;20051;-64
2023/08/01 12:27:12;;;;;;;14.05;8.30;;;;;;;;;;5127224;27;20051;-63
2023/08/01 12:29:40;;;;;;;18.48;11.38;;;;;;;;;;5133384;27;20050;-63
2023/08/01 12:32:10;;;;;;;14.40;9.55;;;;;;;;;;5128283;27;20499;-63
2023/08/01 12:34:38;;;;;;;13.93;10.27;;;;;;;;;;5113482;27;20051;-64
2023/08/01 12:37:05;;;;;;;17.17;11.18;;;;;;;;;;5112367;28;20051;-64
2023/08/01 12:39:32;;;;;;;17.55;8.93;;;;;;;;;;5112136;28;20384;-63
2023/08/01 12:41:59;;;;;;;17.05;9.68;;;;;;;;;;5112629;28;20051;-64
2023/08/01 12:44:25;;;;;;;13.82;8.60;;;;;;;;;;5112296;28;20052;-63
2023/08/01 12:46:54;;;;;;;10.93;7.85;;;;;;;;;;5111224;28;20054;-63
2023/08/01 12:49:21;;;;;;;12.35;8.43;;;;;;;;;;5112868;28;20055;-63
2023/08/01 12:51:47;;;;;;;12.07;8.65;;;;;;;;;;5112689;28;20043;-63
2023/08/01 12:54:16;;;;;;;9.32;6.07;;;;;;;;;;5112183;28;20146;-63
2023/08/01 12:56:44;;;;;;;12.15;7.60;;;;;;;;;;5112502;28;20415;-63
2023/08/01 12:59:11;;;;;;;10.60;6.93;;;;;;;;;;5111960;28;20048;-63
2023/08/01 13:01:37;;;;;;;9.02;5.93;;;;;;;;;;5109428;28;20479;-62
2023/08/01 13:04:08;;;;;;;7.22;4.78;;;;;;;;;;5113732;28;20055;-63
2023/08/01 13:06:35;;;;;;;8.65;4.50;;;;;;;;;;5112133;28;20048;-63
2023/08/01 13:09:01;;;;;;;6.75;4.45;;;;;;;;;;5112061;28;20070;-63
2023/08/01 13:11:28;;;;;;;6.85;4.40;;;;;;;;;;5112316;28;20468;-64
2023/08/01 13:13:56;;;;;;;7.25;4.80;;;;;;;;;;5112566;28;20056;-64
2023/08/01 13:16:23;;;;;;;7.25;4.78;;;;;;;;;;5112362;28;20052;-64
2023/08/01 13:18:50;;;;;;;6.32;4.18;;;;;;;;;;5109984;28;20048;-64
2023/08/01 13:21:20;;;;;;;5.70;3.85;;;;;;;;;;5112346;28;20503;-64
2023/08/01 13:23:46;;;;;;;8.45;4.97;;;;;;;;;;5111638;28;20048;-64
2023/08/01 13:26:13;;;;;;;7.70;3.30;;;;;;;;;;5110416;28;20051;-64
2023/08/01 13:28:40;;;;;;;5.90;3.00;;;;;;;;;;5111685;28;20048;-64
2023/08/01 13:31:07;;;;;;;6.10;3.17;;;;;;;;;;5111887;28;20052;-65
2023/08/01 13:33:33;;;;;;;4.70;2.72;;;;;;;;;;5116710;28;20040;-64
2023/08/01 13:36:01;;;;;;;4.15;2.55;;;;;;;;;;5114287;28;20052;-64
2023/08/01 13:38:30;;;;;;;4.88;3.10;;;;;;;;;;5116027;28;20059;-63
2023/08/01 13:40:59;;;;;;;4.07;2.45;;;;;;;;;;5116042;28;20048;-63
2023/08/01 13:43:26;;;;;;;4.55;2.50;;;;;;;;;;5115903;28;20480;-63
2023/08/01 13:45:53;;;;;;;4.90;2.90;;;;;;;;;;5115398;28;20074;-62
2023/08/01 13:48:20;;;;;;;4.72;2.72;;;;;;;;;;5115655;27;20067;-62
2023/08/01 13:50:47;;;;;;;4.35;2.40;;;;;;;;;;5115681;28;20059;-62
2023/08/01 13:53:14;;;;;;;4.85;2.00;;;;;;;;;;5115557;28;20058;-62
2023/08/01 13:55:42;;;;;;;4.20;2.20;;;;;;;;;;5115319;28;20051;-62
2023/08/01 13:58:08;;;;;;;4.28;2.40;;;;;;;;;;5115793;28;20429;-62
2023/08/01 14:00:35;;;;;;;4.78;2.50;;;;;;;;;;5115273;28;20054;-61
2023/08/01 14:03:02;;;;;;;5.28;2.30;;;;;;;;;;5110478;27;20048;-62
2023/08/01 14:05:29;;;;;;;3.85;2.00;;;;;;;;;;5095020;28;20056;-62
2023/08/01 14:07:56;;;;;;;5.72;2.30;;;;;;;;;;5095126;28;20059;-62
2023/08/01 14:10:23;;;;;;;4.60;2.30;;;;;;;;;;5094772;28;20472;-63
2023/08/01 14:12:51;;;;;;;5.75;2.28;;;;;;;;;;5094972;28;20048;-62
2023/08/01 14:15:18;;;;;;;5.40;2.33;;;;;;;;;;5094773;28;20432;-63
2023/08/01 14:17:45;;;;;;;5.60;2.40;;;;;;;;;;5101579;27;20054;-62
2023/08/01 14:20:12;;;;;;;3.53;1.80;;;;;;;;;;5114666;28;20058;-60
2023/08/01 14:22:39;;;;;;;5.88;2.40;;;;;;;;;;5115164;28;20369;-62
2023/08/01 14:25:06;;;;;;;5.65;2.25;;;;;;;;;;5114543;27;20495;-62
2023/08/01 14:27:33;;;;;;;4.32;2.20;;;;;;;;;;5113284;27;20361;-62
2023/08/01 14:30:03;;;;;;;5.57;2.38;;;;;;;;;;5112309;27;20060;-62
2023/08/01 14:32:29;;;;;;;;;;;;;;;;;;5113999;27;21492;-60
2023/08/01 14:34:56;;;;;;;4.90;2.60;;;;;;;;;;5113987;28;19943;-60